createdAt,value
2017-07-26T00:00:24.262Z,15.69
2017-07-26T00:02:52.619Z,15.67
2017-07-26T00:05:20.960Z,15.68
2017-07-26T00:07:49.319Z,15.72
2017-07-26T00:10:17.679Z,15.74
2017-07-26T00:12:46.033Z,15.72
2017-07-26T00:15:14.387Z,15.75
2017-07-26T00:17:42.714Z,15.73
2017-07-26T00:20:11.087Z,15.70
2017-07-26T00:22:39.441Z,15.77
2017-07-26T00:25:07.774Z,15.79
2017-07-26T00:27:36.111Z,15.78
2017-07-26T00:30:04.422Z,15.79
2017-07-26T00:32:32.760Z,15.73
2017-07-26T00:35:01.081Z,15.83
2017-07-26T00:37:29.421Z,15.87
2017-07-26T00:39:57.778Z,15.86
2017-07-26T00:42:26.107Z,15.87
2017-07-26T00:44:54.450Z,15.91
2017-07-26T00:47:22.776Z,15.85
2017-07-26T00:49:51.120Z,15.82
2017-07-26T00:52:19.463Z,15.89
2017-07-26T00:54:47.871Z,15.97
2017-07-26T00:57:16.498Z,15.93
2017-07-26T00:59:44.833Z,15.92
2017-07-26T01:02:13.148Z,15.87
2017-07-26T01:04:41.505Z,15.84
2017-07-26T01:07:09.838Z,15.88
2017-07-26T01:09:38.202Z,15.84
2017-07-26T01:12:06.554Z,15.76
2017-07-26T01:14:34.867Z,15.80
2017-07-26T01:17:03.200Z,15.81
2017-07-26T01:19:31.513Z,15.93
2017-07-26T01:21:59.855Z,15.93
2017-07-26T01:24:28.204Z,15.91
2017-07-26T01:26:56.524Z,15.93
2017-07-26T01:29:24.869Z,15.93
2017-07-26T01:31:53.192Z,15.85
2017-07-26T01:34:21.531Z,15.92
2017-07-26T01:36:49.902Z,15.86
2017-07-26T01:39:18.229Z,15.93
2017-07-26T01:41:46.587Z,15.96
2017-07-26T01:44:14.908Z,16.00
2017-07-26T01:46:43.521Z,15.91
2017-07-26T01:49:11.846Z,15.88
2017-07-26T01:51:40.159Z,15.97
2017-07-26T01:54:08.492Z,16.00
2017-07-26T01:56:36.834Z,15.86
2017-07-26T01:59:05.191Z,15.93
2017-07-26T02:01:33.538Z,15.90
2017-07-26T02:04:01.893Z,15.93
2017-07-26T02:06:30.228Z,15.90
2017-07-26T02:08:58.667Z,15.97
2017-07-26T02:11:27.010Z,15.88
2017-07-26T02:13:55.342Z,15.90
2017-07-26T02:16:23.659Z,15.91
2017-07-26T02:18:52.266Z,15.89
2017-07-26T02:21:20.579Z,15.93
2017-07-26T02:23:48.914Z,15.92
2017-07-26T02:26:17.256Z,15.94
2017-07-26T02:28:45.583Z,15.92
2017-07-26T02:31:13.938Z,15.90
2017-07-26T02:33:42.273Z,15.89
2017-07-26T02:36:10.651Z,15.86
2017-07-26T02:38:39.010Z,15.88
2017-07-26T02:41:07.326Z,15.96
2017-07-26T02:43:35.688Z,15.94
2017-07-26T02:46:04.035Z,15.96
2017-07-26T02:48:32.385Z,15.89
2017-07-26T02:51:00.722Z,15.84
2017-07-26T02:53:29.059Z,15.83
2017-07-26T02:55:57.406Z,15.79
2017-07-26T02:58:25.749Z,15.85
2017-07-26T03:00:54.097Z,15.83
2017-07-26T03:03:22.416Z,15.83
2017-07-26T03:05:50.756Z,15.87
2017-07-26T03:08:19.067Z,15.90
2017-07-26T03:10:47.423Z,15.83
2017-07-26T03:13:15.749Z,15.80
2017-07-26T03:15:44.110Z,15.88
2017-07-26T03:18:12.466Z,15.88
2017-07-26T03:20:40.782Z,15.87
2017-07-26T03:23:09.122Z,15.85
2017-07-26T03:25:37.451Z,15.85
2017-07-26T03:28:05.799Z,15.86
2017-07-26T03:30:34.138Z,15.88
2017-07-26T03:33:02.537Z,15.92
2017-07-26T03:35:30.873Z,15.96
2017-07-26T03:37:59.231Z,15.93
2017-07-26T03:40:27.572Z,15.93
2017-07-26T03:42:55.885Z,15.89
2017-07-26T03:45:24.224Z,15.83
2017-07-26T03:47:52.531Z,15.83
2017-07-26T03:50:20.864Z,15.81
2017-07-26T03:52:49.194Z,15.82
2017-07-26T03:55:17.542Z,15.83
2017-07-26T03:57:45.864Z,15.88
2017-07-26T04:00:14.478Z,15.82
2017-07-26T04:02:42.816Z,15.80
2017-07-26T04:05:11.151Z,15.85
2017-07-26T04:07:39.494Z,15.79
2017-07-26T04:10:07.833Z,15.83
2017-07-26T04:12:36.229Z,15.85
2017-07-26T04:15:04.556Z,15.88
2017-07-26T04:17:32.917Z,15.83
2017-07-26T04:20:01.280Z,15.87
2017-07-26T04:22:29.631Z,15.86
2017-07-26T04:24:58.001Z,15.89
2017-07-26T04:27:26.341Z,15.86
2017-07-26T04:29:54.700Z,15.88
2017-07-26T04:32:23.043Z,15.83
2017-07-26T04:34:51.391Z,15.82
2017-07-26T04:37:20.446Z,15.88
2017-07-26T04:39:49.073Z,15.93
2017-07-26T04:42:17.418Z,15.91
2017-07-26T04:44:45.751Z,15.93
2017-07-26T04:47:14.118Z,15.91
2017-07-26T04:49:42.506Z,15.88
2017-07-26T04:52:10.875Z,15.88
2017-07-26T04:54:39.215Z,15.93
2017-07-26T04:57:07.573Z,15.90
2017-07-26T04:59:35.913Z,15.96
2017-07-26T05:02:04.258Z,16.00
2017-07-26T05:04:32.614Z,15.91
2017-07-26T05:07:00.958Z,15.87
2017-07-26T05:09:29.304Z,15.98
2017-07-26T05:11:57.624Z,15.96
2017-07-26T05:14:25.982Z,15.91
2017-07-26T05:16:54.332Z,16.01
2017-07-26T05:19:22.663Z,15.92
2017-07-26T05:21:50.987Z,15.99
2017-07-26T05:24:19.331Z,15.95
2017-07-26T05:26:47.726Z,15.98
2017-07-26T05:29:16.054Z,15.90
2017-07-26T05:31:44.745Z,15.93
2017-07-26T05:34:13.080Z,15.90
2017-07-26T05:36:41.431Z,15.94
2017-07-26T05:39:09.771Z,15.95
2017-07-26T05:41:38.871Z,15.99
2017-07-26T05:44:07.221Z,16.05
2017-07-26T05:46:35.547Z,16.09
2017-07-26T05:49:03.892Z,16.06
2017-07-26T05:51:32.259Z,16.14
2017-07-26T05:54:00.572Z,16.06
2017-07-26T05:56:28.919Z,16.05
2017-07-26T05:58:57.256Z,16.01
2017-07-26T06:01:25.603Z,15.95
2017-07-26T06:03:53.938Z,15.96
2017-07-26T06:06:22.300Z,15.92
2017-07-26T06:08:50.616Z,16.00
2017-07-26T06:11:18.978Z,16.03
2017-07-26T06:13:47.331Z,15.95
2017-07-26T06:16:15.733Z,15.96
2017-07-26T06:18:44.098Z,15.98
2017-07-26T06:21:12.429Z,15.94
2017-07-26T06:23:40.783Z,16.03
2017-07-26T06:26:09.129Z,16.05
2017-07-26T06:28:37.472Z,16.15
2017-07-26T06:31:06.169Z,16.09
2017-07-26T06:33:34.545Z,16.09
2017-07-26T06:36:02.879Z,16.10
2017-07-26T06:38:31.260Z,16.14
2017-07-26T06:40:59.609Z,16.17
2017-07-26T06:43:27.948Z,16.20
2017-07-26T06:45:56.326Z,16.30
2017-07-26T06:48:24.667Z,16.39
2017-07-26T06:50:53.027Z,16.46
2017-07-26T06:53:21.359Z,16.51
2017-07-26T06:55:49.724Z,16.49
2017-07-26T06:58:18.070Z,16.56
2017-07-26T07:00:46.402Z,16.63
2017-07-26T07:03:14.765Z,16.74
2017-07-26T07:05:43.079Z,16.77
2017-07-26T07:08:12.206Z,16.75
2017-07-26T07:10:40.528Z,16.71
2017-07-26T07:13:09.246Z,16.84
2017-07-26T07:15:37.592Z,16.79
2017-07-26T07:18:05.936Z,16.89
2017-07-26T07:20:34.295Z,16.99
2017-07-26T07:23:02.633Z,17.00
2017-07-26T07:25:30.999Z,16.93
2017-07-26T07:27:59.337Z,17.00
2017-07-26T07:30:27.693Z,17.04
2017-07-26T07:32:56.039Z,17.14
2017-07-26T07:35:24.647Z,17.16
2017-07-26T07:37:52.983Z,17.17
2017-07-26T07:40:21.335Z,17.26
2017-07-26T07:42:49.707Z,17.32
2017-07-26T07:45:18.056Z,17.33
2017-07-26T07:47:46.477Z,17.36
2017-07-26T07:50:14.809Z,17.44
2017-07-26T07:52:43.558Z,17.33
2017-07-26T07:55:11.895Z,17.36
2017-07-26T07:57:41.322Z,17.36
2017-07-26T08:00:09.683Z,17.40
2017-07-26T08:02:38.022Z,17.43
2017-07-26T08:05:06.421Z,17.49
2017-07-26T08:07:34.748Z,17.63
2017-07-26T08:10:03.090Z,17.63
2017-07-26T08:12:31.456Z,17.64
2017-07-26T08:14:59.776Z,17.77
2017-07-26T08:17:28.123Z,17.79
2017-07-26T08:19:56.479Z,17.81
2017-07-26T08:22:24.844Z,17.88
2017-07-26T08:24:53.181Z,17.87
2017-07-26T08:27:21.845Z,17.88
2017-07-26T08:29:50.183Z,17.90
2017-07-26T08:32:18.503Z,17.89
2017-07-26T08:34:46.841Z,17.71
2017-07-26T08:37:15.162Z,17.65
2017-07-26T08:39:44.093Z,17.72
2017-07-26T08:42:12.422Z,17.74
2017-07-26T08:44:40.759Z,17.70
2017-07-26T08:47:09.109Z,17.74
2017-07-26T08:49:38.233Z,17.85
2017-07-26T08:52:06.585Z,17.93
2017-07-26T08:54:34.917Z,17.98
2017-07-26T08:57:03.609Z,18.00
2017-07-26T08:59:32.420Z,17.94
2017-07-26T09:02:00.754Z,17.92
2017-07-26T09:04:29.119Z,17.92
2017-07-26T09:06:57.452Z,18.05
2017-07-26T09:09:25.808Z,18.18
2017-07-26T09:11:54.129Z,18.24
2017-07-26T09:14:22.517Z,18.30
2017-07-26T09:16:51.631Z,18.33
2017-07-26T09:19:19.958Z,18.37
2017-07-26T09:21:48.363Z,18.47
2017-07-26T09:24:16.696Z,18.34
2017-07-26T09:26:45.450Z,18.30
2017-07-26T09:29:13.780Z,18.37
2017-07-26T09:31:42.117Z,18.46
2017-07-26T09:34:10.480Z,18.50
2017-07-26T09:36:39.597Z,18.53
2017-07-26T09:39:07.954Z,18.56
2017-07-26T09:41:36.304Z,18.40
2017-07-26T09:44:04.661Z,18.44
2017-07-26T09:46:33.018Z,18.49
2017-07-26T09:49:01.358Z,18.49
2017-07-26T09:51:29.705Z,18.55
2017-07-26T09:53:58.044Z,18.63
2017-07-26T09:56:26.413Z,18.58
2017-07-26T09:58:55.095Z,18.60
2017-07-26T10:01:23.468Z,18.52
2017-07-26T10:03:51.820Z,18.55
2017-07-26T10:06:20.151Z,18.63
2017-07-26T10:08:48.486Z,18.57
2017-07-26T10:11:16.838Z,18.60
2017-07-26T10:13:45.219Z,18.69
2017-07-26T10:16:13.565Z,18.76
2017-07-26T10:18:42.722Z,18.79
2017-07-26T10:21:11.051Z,18.83
2017-07-26T10:23:39.647Z,18.81
2017-07-26T10:26:07.988Z,18.80
2017-07-26T10:28:36.325Z,18.81
2017-07-26T10:31:04.666Z,18.77
2017-07-26T10:33:32.987Z,18.77
2017-07-26T10:36:01.346Z,18.83
2017-07-26T10:38:29.674Z,18.87
2017-07-26T10:40:58.015Z,18.84
2017-07-26T10:43:26.327Z,18.92
2017-07-26T10:45:54.671Z,18.91
2017-07-26T10:48:22.983Z,18.90
2017-07-26T10:50:51.319Z,18.91
2017-07-26T10:53:19.638Z,19.08
2017-07-26T10:55:47.981Z,19.19
2017-07-26T10:58:16.333Z,19.20
2017-07-26T11:00:45.437Z,19.17
2017-07-26T11:03:13.799Z,19.30
2017-07-26T11:05:42.131Z,19.37
2017-07-26T11:08:10.477Z,19.35
2017-07-26T11:10:38.806Z,19.37
2017-07-26T11:13:07.201Z,19.46
2017-07-26T11:15:35.547Z,19.44
2017-07-26T11:18:03.903Z,19.50
2017-07-26T11:20:32.263Z,19.61
2017-07-26T11:23:00.606Z,19.74
2017-07-26T11:25:28.971Z,19.88
2017-07-26T11:27:57.316Z,19.96
2017-07-26T11:30:25.689Z,20.09
2017-07-26T11:32:54.035Z,20.03
2017-07-26T11:35:22.757Z,19.99
2017-07-26T11:37:51.086Z,20.09
2017-07-26T11:40:19.405Z,20.08
2017-07-26T11:42:48.544Z,20.19
2017-07-26T11:45:16.901Z,20.15
2017-07-26T11:47:45.264Z,20.36
2017-07-26T11:50:13.640Z,20.50
2017-07-26T11:52:43.286Z,20.67
2017-07-26T11:55:11.623Z,20.71
2017-07-26T11:57:39.956Z,20.70
2017-07-26T12:00:08.298Z,20.76
2017-07-26T12:02:36.624Z,20.79
2017-07-26T12:05:04.984Z,20.68
2017-07-26T12:07:33.305Z,20.67
2017-07-26T12:10:01.676Z,20.69
2017-07-26T12:12:30.074Z,20.65
2017-07-26T12:14:58.401Z,20.48
2017-07-26T12:17:26.762Z,20.65
2017-07-26T12:19:55.102Z,20.65
2017-07-26T12:22:36.990Z,20.79
2017-07-26T12:25:06.067Z,20.88
2017-07-26T12:27:34.433Z,20.84
2017-07-26T12:30:02.773Z,20.82
2017-07-26T12:32:31.093Z,20.89
2017-07-26T12:34:59.436Z,21.00
2017-07-26T12:37:28.545Z,21.16
2017-07-26T12:39:56.888Z,21.35
2017-07-26T12:42:25.229Z,21.46
2017-07-26T12:44:53.580Z,21.50
2017-07-26T12:47:21.925Z,21.58
2017-07-26T12:49:50.771Z,21.67
2017-07-26T12:52:19.125Z,21.74
2017-07-26T12:54:47.495Z,21.85
2017-07-26T12:57:15.869Z,21.86
2017-07-26T12:59:44.225Z,21.83
2017-07-26T13:02:12.572Z,21.69
2017-07-26T13:04:40.915Z,21.75
2017-07-26T13:07:10.010Z,21.93
2017-07-26T13:09:38.362Z,22.00
2017-07-26T13:12:06.707Z,22.17
2017-07-26T13:14:35.054Z,22.21
2017-07-26T13:17:04.194Z,22.11
2017-07-26T13:19:32.560Z,22.11
2017-07-26T13:22:00.913Z,22.23
2017-07-26T13:24:29.247Z,22.35
2017-07-26T13:26:57.609Z,22.43
2017-07-26T13:29:26.000Z,22.54
2017-07-26T13:31:54.335Z,22.50
2017-07-26T13:34:23.438Z,22.46
2017-07-26T13:36:51.806Z,22.64
2017-07-26T13:39:20.199Z,22.77
2017-07-26T13:41:48.554Z,22.96
2017-07-26T13:44:16.913Z,23.08
2017-07-26T13:46:45.242Z,23.17
2017-07-26T13:49:13.604Z,23.25
2017-07-26T13:51:42.692Z,23.43
2017-07-26T13:54:11.030Z,23.42
2017-07-26T13:56:39.345Z,23.54
2017-07-26T13:59:08.552Z,23.42
2017-07-26T14:01:36.891Z,23.35
2017-07-26T14:04:05.533Z,23.33
2017-07-26T14:06:33.867Z,23.44
2017-07-26T14:09:02.206Z,23.55
2017-07-26T14:11:30.569Z,23.65
2017-07-26T14:13:58.900Z,23.66
2017-07-26T14:16:28.063Z,23.93
2017-07-26T14:18:56.391Z,24.12
2017-07-26T14:21:24.746Z,24.19
2017-07-26T14:23:53.122Z,24.20
2017-07-26T14:26:21.473Z,24.23
2017-07-26T14:28:49.875Z,24.11
2017-07-26T14:31:18.238Z,24.24
2017-07-26T14:33:46.598Z,24.39
2017-07-26T14:42:15.722Z,24.61
2017-07-26T14:44:45.600Z,24.86
2017-07-26T14:47:13.983Z,24.91
2017-07-26T14:49:52.877Z,25.13
2017-07-26T14:52:21.292Z,25.27
2017-07-26T14:54:49.780Z,25.35
2017-07-26T14:57:18.139Z,25.68
2017-07-26T14:59:46.501Z,25.71
2017-07-26T15:02:14.849Z,25.60
2017-07-26T15:04:43.208Z,25.29
2017-07-26T15:07:11.543Z,25.51
2017-07-26T15:09:40.150Z,25.58
2017-07-26T15:12:08.485Z,25.80
2017-07-26T15:14:37.634Z,26.03
2017-07-26T15:17:06.684Z,25.94
2017-07-26T15:19:35.036Z,25.76
2017-07-26T15:22:03.378Z,25.69
2017-07-26T15:24:31.723Z,26.22
2017-07-26T15:27:00.047Z,26.36
2017-07-26T15:29:28.386Z,26.96
2017-07-26T15:31:56.713Z,26.53
2017-07-26T15:34:25.108Z,26.15
2017-07-26T15:36:53.450Z,25.83
2017-07-26T15:39:21.831Z,25.59
2017-07-26T15:41:50.627Z,25.45
2017-07-26T15:44:18.940Z,25.45
2017-07-26T15:46:47.571Z,26.02
2017-07-26T15:49:15.932Z,26.19
2017-07-26T15:51:44.275Z,26.37
2017-07-26T15:54:12.651Z,26.73
2017-07-26T15:56:40.995Z,26.57
2017-07-26T15:59:09.616Z,26.18
2017-07-26T16:01:37.948Z,25.87
2017-07-26T16:04:06.935Z,25.67
2017-07-26T16:06:35.274Z,25.33
2017-07-26T16:09:03.587Z,25.24
2017-07-26T16:11:31.964Z,25.11
2017-07-26T16:14:00.319Z,25.34
2017-07-26T16:16:28.671Z,25.19
2017-07-26T16:18:57.030Z,24.97
2017-07-26T16:21:25.358Z,24.85
2017-07-26T16:23:53.774Z,24.58
2017-07-26T16:26:22.115Z,24.72
2017-07-26T16:28:50.459Z,24.74
2017-07-26T16:31:18.841Z,24.68
2017-07-26T16:33:47.172Z,24.63
2017-07-26T16:36:15.529Z,24.67
2017-07-26T16:38:43.867Z,24.57
2017-07-26T16:41:12.499Z,24.58
2017-07-26T16:43:40.882Z,24.58
2017-07-26T16:46:09.234Z,24.44
2017-07-26T16:48:37.590Z,24.15
2017-07-26T16:51:05.931Z,24.26
2017-07-26T16:53:34.274Z,24.25
2017-07-26T16:56:02.667Z,24.30
2017-07-26T16:58:31.008Z,24.34
2017-07-26T17:00:59.637Z,24.15
2017-07-26T17:03:27.967Z,24.24
2017-07-26T17:05:56.300Z,24.20
2017-07-26T17:08:24.658Z,24.01
2017-07-26T17:10:52.985Z,24.00
2017-07-26T17:13:21.618Z,24.12
2017-07-26T17:15:49.950Z,23.97
2017-07-26T17:18:18.332Z,23.80
2017-07-26T17:20:46.720Z,23.64
2017-07-26T17:23:15.039Z,23.64
2017-07-26T17:25:43.662Z,23.58
2017-07-26T17:28:11.997Z,23.49
2017-07-26T17:30:40.359Z,23.39
2017-07-26T17:33:08.720Z,23.31
2017-07-26T17:35:37.066Z,22.97
2017-07-26T17:38:05.416Z,22.99
2017-07-26T17:40:33.752Z,23.00
2017-07-26T17:43:02.133Z,22.72
2017-07-26T17:45:30.779Z,22.80
2017-07-26T17:47:59.796Z,22.71
2017-07-26T17:50:28.111Z,22.68
2017-07-26T17:52:56.485Z,22.66
2017-07-26T17:55:24.825Z,22.54
2017-07-26T17:57:53.434Z,22.34
2017-07-26T18:00:21.770Z,22.52
2017-07-26T18:02:50.103Z,22.45
2017-07-26T18:05:18.472Z,22.35
2017-07-26T18:07:46.813Z,22.31
2017-07-26T18:10:15.415Z,22.16
2017-07-26T18:12:43.749Z,22.20
2017-07-26T18:15:12.172Z,22.14
2017-07-26T18:17:40.546Z,22.04
2017-07-26T18:20:08.882Z,21.95
2017-07-26T18:22:37.234Z,21.81
2017-07-26T18:25:05.565Z,21.63
2017-07-26T18:27:33.965Z,21.51
2017-07-26T18:30:02.350Z,21.40
2017-07-26T18:32:30.708Z,21.29
2017-07-26T18:34:59.358Z,21.15
2017-07-26T18:37:27.710Z,20.99
2017-07-26T18:39:56.059Z,20.95
2017-07-26T18:42:24.439Z,20.76
2017-07-26T18:44:52.786Z,20.71
2017-07-26T18:47:21.147Z,20.59
2017-07-26T18:49:49.513Z,20.53
2017-07-26T18:52:17.876Z,20.36
2017-07-26T18:54:46.247Z,20.39
2017-07-26T18:57:14.607Z,20.37
2017-07-26T18:59:43.001Z,20.13
2017-07-26T19:02:11.349Z,20.04
2017-07-26T19:04:39.719Z,19.86
2017-07-26T19:07:08.120Z,19.80
2017-07-26T19:09:36.491Z,19.61
2017-07-26T19:12:04.835Z,19.51
2017-07-26T19:14:33.200Z,19.43
2017-07-26T19:17:01.538Z,19.36
2017-07-26T19:19:29.913Z,19.27
2017-07-26T19:21:58.275Z,19.23
2017-07-26T19:24:26.630Z,19.17
2017-07-26T19:26:54.998Z,19.13
2017-07-26T19:29:23.320Z,19.10
2017-07-26T19:31:51.914Z,19.08
2017-07-26T19:34:20.359Z,18.99
2017-07-26T19:36:48.683Z,18.90
2017-07-26T19:39:19.585Z,18.94
2017-07-26T19:41:47.934Z,18.77
2017-07-26T19:44:16.280Z,18.59
2017-07-26T19:46:44.624Z,18.61
2017-07-26T19:49:12.977Z,18.56
2017-07-26T19:51:41.323Z,18.47
2017-07-26T19:54:09.654Z,18.37
2017-07-26T19:56:38.038Z,18.37
2017-07-26T19:59:06.384Z,18.27
2017-07-26T20:01:34.741Z,18.31
2017-07-26T20:04:03.091Z,18.35
2017-07-26T20:06:31.437Z,18.40
2017-07-26T20:08:59.795Z,18.30
2017-07-26T20:11:28.162Z,18.16
2017-07-26T20:13:56.489Z,18.21
2017-07-26T20:16:24.837Z,18.25
2017-07-26T20:18:53.201Z,18.07
2017-07-26T20:21:21.882Z,18.01
2017-07-26T20:23:50.223Z,17.99
2017-07-26T20:26:18.566Z,18.11
2017-07-26T20:28:46.935Z,17.99
2017-07-26T20:31:15.270Z,17.87
2017-07-26T20:33:44.655Z,17.84
2017-07-26T20:36:12.977Z,17.97
2017-07-26T20:38:41.305Z,17.87
2017-07-26T20:41:09.691Z,17.81
2017-07-26T20:43:38.030Z,17.78
2017-07-26T20:46:06.388Z,17.94
2017-07-26T20:48:34.745Z,17.92
2017-07-26T20:51:03.092Z,17.83
2017-07-26T20:53:31.458Z,18.04
2017-07-26T20:55:59.804Z,18.09
2017-07-26T20:58:28.271Z,18.07
2017-07-26T21:00:56.610Z,17.96
2017-07-26T21:03:24.969Z,17.84
2017-07-26T21:05:53.657Z,17.87
2017-07-26T21:08:22.011Z,17.78
2017-07-26T21:10:50.353Z,17.91
2017-07-26T21:13:18.705Z,17.85
2017-07-26T21:15:47.039Z,17.66
2017-07-26T21:18:15.678Z,17.75
2017-07-26T21:20:44.005Z,17.85
2017-07-26T21:23:12.348Z,17.84
2017-07-26T21:25:40.712Z,17.75
2017-07-26T21:28:09.047Z,17.74
2017-07-26T21:30:37.433Z,17.67
2017-07-26T21:33:05.760Z,17.66
2017-07-26T21:35:34.121Z,17.62
2017-07-26T21:38:02.497Z,17.60
2017-07-26T21:40:30.820Z,17.65
2017-07-26T21:42:59.159Z,17.60
2017-07-26T21:45:27.494Z,17.58
2017-07-26T21:47:55.815Z,17.59
2017-07-26T21:50:24.152Z,17.62
2017-07-26T21:52:52.517Z,17.56
2017-07-26T21:55:20.875Z,17.63
2017-07-26T21:57:49.194Z,17.66
2017-07-26T22:00:17.537Z,17.65
2017-07-26T22:02:45.860Z,17.61
2017-07-26T22:05:14.450Z,17.61
2017-07-26T22:07:42.778Z,17.70
2017-07-26T22:10:11.099Z,17.68
2017-07-26T22:12:39.476Z,17.53
2017-07-26T22:15:07.801Z,17.51
2017-07-26T22:17:36.142Z,17.53
2017-07-26T22:20:04.497Z,17.63
2017-07-26T22:22:32.860Z,17.73
2017-07-26T22:25:01.236Z,17.64
2017-07-26T22:27:29.569Z,17.63
2017-07-26T22:29:57.991Z,17.63
2017-07-26T22:32:26.339Z,17.61
2017-07-26T22:34:54.674Z,17.68
2017-07-26T22:37:23.021Z,17.52
2017-07-26T22:39:51.360Z,17.45
2017-07-26T22:42:19.684Z,17.53
2017-07-26T22:44:48.296Z,17.57
2017-07-26T22:47:16.616Z,17.55
2017-07-26T22:49:44.956Z,17.62
2017-07-26T22:52:13.305Z,17.58
2017-07-26T22:54:41.643Z,17.70
2017-07-26T22:57:09.981Z,17.78
2017-07-26T22:59:38.392Z,17.62
2017-07-26T23:02:06.769Z,17.70
2017-07-26T23:04:35.124Z,17.57
2017-07-26T23:07:03.443Z,17.58
2017-07-26T23:09:31.786Z,17.57
2017-07-26T23:12:00.146Z,17.56
2017-07-26T23:14:28.468Z,17.55
2017-07-26T23:16:56.815Z,17.61
2017-07-26T23:19:25.146Z,17.58
2017-07-26T23:21:53.504Z,17.65
2017-07-26T23:24:21.862Z,17.55
2017-07-26T23:26:50.200Z,17.63
2017-07-26T23:29:18.818Z,17.65
2017-07-26T23:31:47.154Z,17.71
2017-07-26T23:34:15.498Z,17.72
2017-07-26T23:36:43.885Z,17.80
2017-07-26T23:39:12.232Z,17.89
2017-07-26T23:41:40.571Z,17.90
2017-07-26T23:44:08.897Z,17.92
2017-07-26T23:46:37.258Z,17.92
2017-07-26T23:49:05.578Z,17.99
2017-07-26T23:51:33.936Z,18.02
2017-07-26T23:54:02.285Z,18.06
2017-07-26T23:56:30.627Z,18.12
2017-07-26T23:58:58.993Z,18.17
